sensor_id;sensor_type;location;lat;lon;timestamp;temperature;humidity
25280;DHT22;13225;47.804;12.116;2024-03-17T00:02:20;8.40;99.90
25280;DHT22;13225;47.804;12.116;2024-03-17T00:04:46;8.40;99.90
25280;DHT22;13225;47.804;12.116;2024-03-17T00:07:12;8.40;99.90
25280;DHT22;13225;47.804;12.116;2024-03-17T00:09:38;8.40;99.90
25280;DHT22;13225;47.804;12.116;2024-03-17T00:12:04;8.40;99.90
25280;DHT22;13225;47.804;12.116;2024-03-17T00:14:30;8.40;99.90
25280;DHT22;13225;47.804;12.116;2024-03-17T00:16:56;8.50;99.90
25280;DHT22;13225;47.804;12.116;2024-03-17T00:19:23;8.50;99.90
25280;DHT22;13225;47.804;12.116;2024-03-17T00:21:49;8.50;99.90
25280;DHT22;13225;47.804;12.116;2024-03-17T00:24:19;8.50;99.90
25280;DHT22;13225;47.804;12.116;2024-03-17T00:26:45;8.50;99.90
25280;DHT22;13225;47.804;12.116;2024-03-17T00:29:11;8.50;99.90
25280;DHT22;13225;47.804;12.116;2024-03-17T00:31:36;8.40;99.90
25280;DHT22;13225;47.804;12.116;2024-03-17T00:34:02;8.50;99.90
25280;DHT22;13225;47.804;12.116;2024-03-17T00:36:28;8.50;99.90
25280;DHT22;13225;47.804;12.116;2024-03-17T00:38:54;8.50;99.90
25280;DHT22;13225;47.804;12.116;2024-03-17T00:41:19;8.50;99.90
25280;DHT22;13225;47.804;12.116;2024-03-17T00:43:46;8.50;99.90
25280;DHT22;13225;47.804;12.116;2024-03-17T00:46:12;8.50;99.90
25280;DHT22;13225;47.804;12.116;2024-03-17T00:48:38;8.50;99.90
25280;DHT22;13225;47.804;12.116;2024-03-17T00:51:03;8.40;99.90
25280;DHT22;13225;47.804;12.116;2024-03-17T00:53:29;8.40;99.90
25280;DHT22;13225;47.804;12.116;2024-03-17T00:55:55;8.40;99.90
25280;DHT22;13225;47.804;12.116;2024-03-17T00:58:25;8.40;99.90
25280;DHT22;13225;47.804;12.116;2024-03-17T01:00:51;8.30;99.90
25280;DHT22;13225;47.804;12.116;2024-03-17T01:03:17;8.30;99.90
25280;DHT22;13225;47.804;12.116;2024-03-17T01:05:43;8.30;99.90
25280;DHT22;13225;47.804;12.116;2024-03-17T01:08:10;8.40;99.90
25280;DHT22;13225;47.804;12.116;2024-03-17T01:10:40;8.30;99.90
25280;DHT22;13225;47.804;12.116;2024-03-17T01:13:06;8.30;99.90
25280;DHT22;13225;47.804;12.116;2024-03-17T01:15:32;8.40;99.90
25280;DHT22;13225;47.804;12.116;2024-03-17T01:17:58;8.50;99.90
25280;DHT22;13225;47.804;12.116;2024-03-17T01:20:25;8.40;99.90
25280;DHT22;13225;47.804;12.116;2024-03-17T01:22:51;8.30;99.90
25280;DHT22;13225;47.804;12.116;2024-03-17T01:25:16;8.20;99.90
25280;DHT22;13225;47.804;12.116;2024-03-17T01:27:42;8.20;99.90
25280;DHT22;13225;47.804;12.116;2024-03-17T01:30:09;8.30;99.90
25280;DHT22;13225;47.804;12.116;2024-03-17T01:32:35;8.40;99.90
25280;DHT22;13225;47.804;12.116;2024-03-17T01:35:00;8.40;99.90
25280;DHT22;13225;47.804;12.116;2024-03-17T01:37:26;8.40;99.90
25280;DHT22;13225;47.804;12.116;2024-03-17T01:39:52;8.30;99.90
25280;DHT22;13225;47.804;12.116;2024-03-17T01:42:17;8.20;99.90
25280;DHT22;13225;47.804;12.116;2024-03-17T01:44:43;8.20;99.90
25280;DHT22;13225;47.804;12.116;2024-03-17T01:47:09;8.20;99.90
25280;DHT22;13225;47.804;12.116;2024-03-17T01:49:35;8.20;99.90
25280;DHT22;13225;47.804;12.116;2024-03-17T01:52:02;8.20;99.90
25280;DHT22;13225;47.804;12.116;2024-03-17T01:54:29;8.20;99.90
25280;DHT22;13225;47.804;12.116;2024-03-17T01:56:55;8.40;99.90
25280;DHT22;13225;47.804;12.116;2024-03-17T01:59:20;8.30;99.90
25280;DHT22;13225;47.804;12.116;2024-03-17T02:01:46;8.30;99.90
25280;DHT22;13225;47.804;12.116;2024-03-17T02:04:12;8.30;99.90
25280;DHT22;13225;47.804;12.116;2024-03-17T02:06:37;8.30;99.90
25280;DHT22;13225;47.804;12.116;2024-03-17T02:09:04;8.30;99.90
25280;DHT22;13225;47.804;12.116;2024-03-17T02:11:32;8.20;99.90
25280;DHT22;13225;47.804;12.116;2024-03-17T02:13:58;8.30;99.90
25280;DHT22;13225;47.804;12.116;2024-03-17T02:16:24;8.20;99.90
25280;DHT22;13225;47.804;12.116;2024-03-17T02:18:56;8.20;99.90
25280;DHT22;13225;47.804;12.116;2024-03-17T02:21:23;8.20;99.90
25280;DHT22;13225;47.804;12.116;2024-03-17T02:23:50;8.20;99.90
25280;DHT22;13225;47.804;12.116;2024-03-17T02:26:16;8.20;99.90
25280;DHT22;13225;47.804;12.116;2024-03-17T02:28:43;8.20;99.90
25280;DHT22;13225;47.804;12.116;2024-03-17T02:31:11;8.20;99.90
25280;DHT22;13225;47.804;12.116;2024-03-17T02:33:37;8.20;99.90
25280;DHT22;13225;47.804;12.116;2024-03-17T02:36:03;8.10;99.90
25280;DHT22;13225;47.804;12.116;2024-03-17T02:38:30;8.10;99.90
25280;DHT22;13225;47.804;12.116;2024-03-17T02:41:15;8.10;99.90
25280;DHT22;13225;47.804;12.116;2024-03-17T02:43:41;8.10;99.90
25280;DHT22;13225;47.804;12.116;2024-03-17T02:46:10;8.00;99.90
25280;DHT22;13225;47.804;12.116;2024-03-17T02:48:36;8.00;99.90
25280;DHT22;13225;47.804;12.116;2024-03-17T02:51:06;8.00;99.90
25280;DHT22;13225;47.804;12.116;2024-03-17T02:53:32;8.00;99.90
25280;DHT22;13225;47.804;12.116;2024-03-17T02:55:57;8.00;99.90
25280;DHT22;13225;47.804;12.116;2024-03-17T02:58:23;8.00;99.90
25280;DHT22;13225;47.804;12.116;2024-03-17T03:00:48;8.00;99.90
25280;DHT22;13225;47.804;12.116;2024-03-17T03:03:15;8.00;99.90
25280;DHT22;13225;47.804;12.116;2024-03-17T03:05:40;8.00;99.90
25280;DHT22;13225;47.804;12.116;2024-03-17T03:08:06;7.90;99.90
25280;DHT22;13225;47.804;12.116;2024-03-17T03:10:31;7.90;99.90
25280;DHT22;13225;47.804;12.116;2024-03-17T03:12:57;7.90;99.90
25280;DHT22;13225;47.804;12.116;2024-03-17T03:15:22;8.00;99.90
25280;DHT22;13225;47.804;12.116;2024-03-17T03:17:48;7.90;99.90
25280;DHT22;13225;47.804;12.116;2024-03-17T03:20:14;8.00;99.90
25280;DHT22;13225;47.804;12.116;2024-03-17T03:22:40;8.00;99.90
25280;DHT22;13225;47.804;12.116;2024-03-17T03:25:06;7.90;99.90
25280;DHT22;13225;47.804;12.116;2024-03-17T03:27:33;7.90;99.90
25280;DHT22;13225;47.804;12.116;2024-03-17T03:29:59;7.90;99.90
25280;DHT22;13225;47.804;12.116;2024-03-17T03:34:51;7.90;99.90
25280;DHT22;13225;47.804;12.116;2024-03-17T03:37:16;8.00;99.90
25280;DHT22;13225;47.804;12.116;2024-03-17T03:39:42;7.90;99.90
25280;DHT22;13225;47.804;12.116;2024-03-17T03:42:08;8.00;99.90
25280;DHT22;13225;47.804;12.116;2024-03-17T03:44:33;7.90;99.90
25280;DHT22;13225;47.804;12.116;2024-03-17T03:46:59;7.90;99.90
25280;DHT22;13225;47.804;12.116;2024-03-17T03:49:26;7.90;99.90
25280;DHT22;13225;47.804;12.116;2024-03-17T03:51:52;7.90;99.90
25280;DHT22;13225;47.804;12.116;2024-03-17T03:54:17;7.90;99.90
25280;DHT22;13225;47.804;12.116;2024-03-17T03:56:43;7.80;99.90
25280;DHT22;13225;47.804;12.116;2024-03-17T03:59:09;7.90;99.90
25280;DHT22;13225;47.804;12.116;2024-03-17T04:01:35;7.90;99.90
25280;DHT22;13225;47.804;12.116;2024-03-17T04:04:00;8.00;99.90
25280;DHT22;13225;47.804;12.116;2024-03-17T04:06:26;7.90;99.90
25280;DHT22;13225;47.804;12.116;2024-03-17T04:08:51;7.90;99.90
25280;DHT22;13225;47.804;12.116;2024-03-17T04:11:17;7.90;99.90
25280;DHT22;13225;47.804;12.116;2024-03-17T04:13:42;7.80;99.90
25280;DHT22;13225;47.804;12.116;2024-03-17T04:16:08;7.70;99.90
25280;DHT22;13225;47.804;12.116;2024-03-17T04:18:35;7.70;99.90
25280;DHT22;13225;47.804;12.116;2024-03-17T04:21:03;7.70;99.90
25280;DHT22;13225;47.804;12.116;2024-03-17T04:23:29;7.70;99.90
25280;DHT22;13225;47.804;12.116;2024-03-17T04:25:57;7.70;99.90
25280;DHT22;13225;47.804;12.116;2024-03-17T04:28:23;7.60;99.90
25280;DHT22;13225;47.804;12.116;2024-03-17T04:30:49;7.60;99.90
25280;DHT22;13225;47.804;12.116;2024-03-17T04:33:14;7.60;99.90
25280;DHT22;13225;47.804;12.116;2024-03-17T04:35:42;7.60;99.90
25280;DHT22;13225;47.804;12.116;2024-03-17T04:38:08;7.50;99.90
25280;DHT22;13225;47.804;12.116;2024-03-17T04:40:39;7.30;99.90
25280;DHT22;13225;47.804;12.116;2024-03-17T04:43:05;7.40;99.90
25280;DHT22;13225;47.804;12.116;2024-03-17T04:45:31;7.30;99.90
25280;DHT22;13225;47.804;12.116;2024-03-17T04:47:56;7.30;99.90
25280;DHT22;13225;47.804;12.116;2024-03-17T04:50:22;7.20;99.90
25280;DHT22;13225;47.804;12.116;2024-03-17T04:52:47;7.10;99.90
25280;DHT22;13225;47.804;12.116;2024-03-17T04:55:14;7.00;99.90
25280;DHT22;13225;47.804;12.116;2024-03-17T04:57:42;6.90;99.90
25280;DHT22;13225;47.804;12.116;2024-03-17T05:00:08;6.80;99.90
25280;DHT22;13225;47.804;12.116;2024-03-17T05:02:34;6.70;99.90
25280;DHT22;13225;47.804;12.116;2024-03-17T05:05:00;6.60;99.90
25280;DHT22;13225;47.804;12.116;2024-03-17T05:07:25;6.60;99.90
25280;DHT22;13225;47.804;12.116;2024-03-17T05:09:51;6.60;99.90
25280;DHT22;13225;47.804;12.116;2024-03-17T05:12:17;6.60;99.90
25280;DHT22;13225;47.804;12.116;2024-03-17T05:14:42;6.70;99.90
25280;DHT22;13225;47.804;12.116;2024-03-17T05:17:08;6.80;99.90
25280;DHT22;13225;47.804;12.116;2024-03-17T05:19:33;6.90;99.90
25280;DHT22;13225;47.804;12.116;2024-03-17T05:21:59;6.90;99.90
25280;DHT22;13225;47.804;12.116;2024-03-17T05:24:25;6.90;99.90
25280;DHT22;13225;47.804;12.116;2024-03-17T05:26:50;6.90;99.90
25280;DHT22;13225;47.804;12.116;2024-03-17T05:29:16;6.80;99.90
25280;DHT22;13225;47.804;12.116;2024-03-17T05:31:42;6.80;99.90
25280;DHT22;13225;47.804;12.116;2024-03-17T05:34:09;6.70;99.90
25280;DHT22;13225;47.804;12.116;2024-03-17T05:36:36;6.70;99.90
25280;DHT22;13225;47.804;12.116;2024-03-17T05:39:01;6.90;99.90
25280;DHT22;13225;47.804;12.116;2024-03-17T05:41:27;6.90;99.90
25280;DHT22;13225;47.804;12.116;2024-03-17T05:43:53;6.90;99.90
25280;DHT22;13225;47.804;12.116;2024-03-17T05:46:23;7.00;99.90
25280;DHT22;13225;47.804;12.116;2024-03-17T05:48:49;7.00;99.90
25280;DHT22;13225;47.804;12.116;2024-03-17T05:51:14;7.00;99.90
25280;DHT22;13225;47.804;12.116;2024-03-17T05:53:41;7.00;99.90
25280;DHT22;13225;47.804;12.116;2024-03-17T05:56:09;7.10;99.90
25280;DHT22;13225;47.804;12.116;2024-03-17T05:58:37;7.20;99.90
25280;DHT22;13225;47.804;12.116;2024-03-17T06:01:03;7.20;99.90
25280;DHT22;13225;47.804;12.116;2024-03-17T06:03:28;7.20;99.90
25280;DHT22;13225;47.804;12.116;2024-03-17T06:05:54;7.30;99.90
25280;DHT22;13225;47.804;12.116;2024-03-17T06:08:20;7.40;99.90
25280;DHT22;13225;47.804;12.116;2024-03-17T06:10:48;7.50;99.90
25280;DHT22;13225;47.804;12.116;2024-03-17T06:13:14;7.50;99.90
25280;DHT22;13225;47.804;12.116;2024-03-17T06:15:43;7.60;99.90
25280;DHT22;13225;47.804;12.116;2024-03-17T06:18:11;7.60;99.90
25280;DHT22;13225;47.804;12.116;2024-03-17T06:20:43;7.70;99.90
25280;DHT22;13225;47.804;12.116;2024-03-17T06:23:12;7.70;99.90
25280;DHT22;13225;47.804;12.116;2024-03-17T06:25:41;7.80;99.90
25280;DHT22;13225;47.804;12.116;2024-03-17T06:28:08;7.80;99.90
25280;DHT22;13225;47.804;12.116;2024-03-17T06:30:35;7.80;99.90
25280;DHT22;13225;47.804;12.116;2024-03-17T06:33:01;7.80;99.90
25280;DHT22;13225;47.804;12.116;2024-03-17T06:35:27;7.90;99.90
25280;DHT22;13225;47.804;12.116;2024-03-17T06:37:53;7.90;99.90
25280;DHT22;13225;47.804;12.116;2024-03-17T06:40:19;7.90;99.90
25280;DHT22;13225;47.804;12.116;2024-03-17T06:42:44;7.90;99.90
25280;DHT22;13225;47.804;12.116;2024-03-17T06:45:10;8.00;99.90
25280;DHT22;13225;47.804;12.116;2024-03-17T06:47:39;8.00;99.90
25280;DHT22;13225;47.804;12.116;2024-03-17T06:50:05;8.10;99.90
25280;DHT22;13225;47.804;12.116;2024-03-17T06:52:31;8.10;99.90
25280;DHT22;13225;47.804;12.116;2024-03-17T06:54:57;8.10;99.90
25280;DHT22;13225;47.804;12.116;2024-03-17T06:57:24;8.00;99.90
25280;DHT22;13225;47.804;12.116;2024-03-17T06:59:49;7.90;99.90
25280;DHT22;13225;47.804;12.116;2024-03-17T07:02:16;7.90;99.90
25280;DHT22;13225;47.804;12.116;2024-03-17T07:04:45;8.00;99.90
25280;DHT22;13225;47.804;12.116;2024-03-17T07:07:12;7.90;99.90
25280;DHT22;13225;47.804;12.116;2024-03-17T07:09:38;8.00;99.90
25280;DHT22;13225;47.804;12.116;2024-03-17T07:12:09;8.10;99.90
25280;DHT22;13225;47.804;12.116;2024-03-17T07:14:35;8.30;99.90
25280;DHT22;13225;47.804;12.116;2024-03-17T07:17:00;8.60;99.90
25280;DHT22;13225;47.804;12.116;2024-03-17T07:19:26;8.60;99.90
25280;DHT22;13225;47.804;12.116;2024-03-17T07:21:52;8.70;99.90
25280;DHT22;13225;47.804;12.116;2024-03-17T07:24:17;8.70;99.90
25280;DHT22;13225;47.804;12.116;2024-03-17T07:26:43;8.70;99.90
25280;DHT22;13225;47.804;12.116;2024-03-17T07:29:09;8.70;99.90
25280;DHT22;13225;47.804;12.116;2024-03-17T07:31:34;8.70;99.90
25280;DHT22;13225;47.804;12.116;2024-03-17T07:34:00;8.60;99.90
25280;DHT22;13225;47.804;12.116;2024-03-17T07:36:26;8.80;99.90
25280;DHT22;13225;47.804;12.116;2024-03-17T07:38:51;8.90;99.90
25280;DHT22;13225;47.804;12.116;2024-03-17T07:41:17;9.00;99.90
25280;DHT22;13225;47.804;12.116;2024-03-17T07:43:44;9.00;99.90
25280;DHT22;13225;47.804;12.116;2024-03-17T07:46:12;9.10;99.90
25280;DHT22;13225;47.804;12.116;2024-03-17T07:48:39;9.10;99.90
25280;DHT22;13225;47.804;12.116;2024-03-17T07:51:06;9.10;99.90
25280;DHT22;13225;47.804;12.116;2024-03-17T07:53:33;9.20;99.90
25280;DHT22;13225;47.804;12.116;2024-03-17T07:56:09;9.20;99.90
25280;DHT22;13225;47.804;12.116;2024-03-17T07:58:37;9.30;99.90
25280;DHT22;13225;47.804;12.116;2024-03-17T08:01:07;9.30;99.90
25280;DHT22;13225;47.804;12.116;2024-03-17T08:03:36;9.40;99.90
25280;DHT22;13225;47.804;12.116;2024-03-17T08:06:03;9.30;99.90
25280;DHT22;13225;47.804;12.116;2024-03-17T08:08:29;9.30;99.90
25280;DHT22;13225;47.804;12.116;2024-03-17T08:10:55;9.40;99.90
25280;DHT22;13225;47.804;12.116;2024-03-17T08:13:21;9.50;99.90
25280;DHT22;13225;47.804;12.116;2024-03-17T08:15:58;9.50;99.90
25280;DHT22;13225;47.804;12.116;2024-03-17T08:18:24;9.60;99.90
25280;DHT22;13225;47.804;12.116;2024-03-17T08:20:50;9.60;99.90
25280;DHT22;13225;47.804;12.116;2024-03-17T08:23:16;9.80;99.90
25280;DHT22;13225;47.804;12.116;2024-03-17T08:25:42;9.90;99.90
25280;DHT22;13225;47.804;12.116;2024-03-17T08:28:07;9.90;99.90
25280;DHT22;13225;47.804;12.116;2024-03-17T08:30:33;9.90;99.90
25280;DHT22;13225;47.804;12.116;2024-03-17T08:32:59;9.80;99.90
25280;DHT22;13225;47.804;12.116;2024-03-17T08:35:25;9.90;99.90
25280;DHT22;13225;47.804;12.116;2024-03-17T08:37:52;10.00;99.90
25280;DHT22;13225;47.804;12.116;2024-03-17T08:40:20;10.10;99.90
25280;DHT22;13225;47.804;12.116;2024-03-17T08:42:46;10.20;99.90
25280;DHT22;13225;47.804;12.116;2024-03-17T08:45:12;10.30;99.90
25280;DHT22;13225;47.804;12.116;2024-03-17T08:47:38;10.40;99.90
25280;DHT22;13225;47.804;12.116;2024-03-17T08:50:04;10.50;99.90
25280;DHT22;13225;47.804;12.116;2024-03-17T08:52:30;10.50;99.90
25280;DHT22;13225;47.804;12.116;2024-03-17T08:54:59;10.40;99.90
25280;DHT22;13225;47.804;12.116;2024-03-17T08:57:25;10.50;99.90
25280;DHT22;13225;47.804;12.116;2024-03-17T08:59:51;10.50;99.90
25280;DHT22;13225;47.804;12.116;2024-03-17T09:02:20;10.50;99.90
25280;DHT22;13225;47.804;12.116;2024-03-17T09:04:47;10.50;99.90
25280;DHT22;13225;47.804;12.116;2024-03-17T09:07:12;10.60;99.90
25280;DHT22;13225;47.804;12.116;2024-03-17T09:09:41;10.80;99.90
25280;DHT22;13225;47.804;12.116;2024-03-17T09:12:06;11.00;99.90
25280;DHT22;13225;47.804;12.116;2024-03-17T09:14:32;11.20;99.90
25280;DHT22;13225;47.804;12.116;2024-03-17T09:16:59;11.20;99.90
25280;DHT22;13225;47.804;12.116;2024-03-17T09:19:24;11.30;99.90
25280;DHT22;13225;47.804;12.116;2024-03-17T09:21:50;11.30;99.90
25280;DHT22;13225;47.804;12.116;2024-03-17T09:24:15;11.20;99.90
25280;DHT22;13225;47.804;12.116;2024-03-17T09:26:41;11.30;99.90
25280;DHT22;13225;47.804;12.116;2024-03-17T09:29:07;11.50;99.90
25280;DHT22;13225;47.804;12.116;2024-03-17T09:31:32;11.30;99.90
25280;DHT22;13225;47.804;12.116;2024-03-17T09:34:03;11.40;99.90
25280;DHT22;13225;47.804;12.116;2024-03-17T09:36:29;11.50;99.90
25280;DHT22;13225;47.804;12.116;2024-03-17T09:38:56;11.50;99.90
25280;DHT22;13225;47.804;12.116;2024-03-17T09:41:23;11.40;99.90
25280;DHT22;13225;47.804;12.116;2024-03-17T09:43:56;11.60;99.90
25280;DHT22;13225;47.804;12.116;2024-03-17T09:46:23;11.70;99.90
25280;DHT22;13225;47.804;12.116;2024-03-17T09:48:49;11.80;99.90
25280;DHT22;13225;47.804;12.116;2024-03-17T09:51:20;11.80;99.90
25280;DHT22;13225;47.804;12.116;2024-03-17T09:53:46;11.80;99.90
25280;DHT22;13225;47.804;12.116;2024-03-17T09:56:17;11.90;99.90
25280;DHT22;13225;47.804;12.116;2024-03-17T09:58:44;12.10;99.90
25280;DHT22;13225;47.804;12.116;2024-03-17T10:01:10;12.20;99.90
25280;DHT22;13225;47.804;12.116;2024-03-17T10:03:47;12.20;99.90
25280;DHT22;13225;47.804;12.116;2024-03-17T10:06:25;12.30;99.90
25280;DHT22;13225;47.804;12.116;2024-03-17T10:08:55;12.30;99.90
25280;DHT22;13225;47.804;12.116;2024-03-17T10:11:23;12.50;99.90
25280;DHT22;13225;47.804;12.116;2024-03-17T10:14:06;12.70;99.90
25280;DHT22;13225;47.804;12.116;2024-03-17T10:16:34;12.70;99.90
25280;DHT22;13225;47.804;12.116;2024-03-17T10:19:12;12.90;99.90
25280;DHT22;13225;47.804;12.116;2024-03-17T10:21:39;13.10;99.90
25280;DHT22;13225;47.804;12.116;2024-03-17T10:24:09;13.10;99.90
25280;DHT22;13225;47.804;12.116;2024-03-17T10:29:29;12.60;99.90
25280;DHT22;13225;47.804;12.116;2024-03-17T10:32:01;12.40;99.90
25280;DHT22;13225;47.804;12.116;2024-03-17T10:34:28;12.60;99.90
25280;DHT22;13225;47.804;12.116;2024-03-17T10:39:42;13.20;99.90
25280;DHT22;13225;47.804;12.116;2024-03-17T10:42:09;13.50;99.90
25280;DHT22;13225;47.804;12.116;2024-03-17T10:44:37;13.80;99.90
25280;DHT22;13225;47.804;12.116;2024-03-17T10:47:04;14.10;99.90
25280;DHT22;13225;47.804;12.116;2024-03-17T10:49:36;14.20;99.90
25280;DHT22;13225;47.804;12.116;2024-03-17T10:52:07;14.10;99.90
25280;DHT22;13225;47.804;12.116;2024-03-17T10:54:34;14.30;99.90
25280;DHT22;13225;47.804;12.116;2024-03-17T10:59:52;14.40;99.90
25280;DHT22;13225;47.804;12.116;2024-03-17T11:02:26;14.70;99.90
25280;DHT22;13225;47.804;12.116;2024-03-17T11:04:59;14.80;99.90
25280;DHT22;13225;47.804;12.116;2024-03-17T11:07:26;14.80;99.90
25280;DHT22;13225;47.804;12.116;2024-03-17T11:09:55;14.90;99.90
25280;DHT22;13225;47.804;12.116;2024-03-17T11:12:43;15.00;99.90
25280;DHT22;13225;47.804;12.116;2024-03-17T11:17:48;15.40;99.90
25280;DHT22;13225;47.804;12.116;2024-03-17T11:22:52;15.50;99.90
25280;DHT22;13225;47.804;12.116;2024-03-17T11:27:59;15.80;99.90
25280;DHT22;13225;47.804;12.116;2024-03-17T11:38:59;15.40;99.90
25280;DHT22;13225;47.804;12.116;2024-03-17T11:41:44;15.10;99.90
25280;DHT22;13225;47.804;12.116;2024-03-17T11:47:02;15.10;99.90
25280;DHT22;13225;47.804;12.116;2024-03-17T11:49:40;15.10;99.90
25280;DHT22;13225;47.804;12.116;2024-03-17T11:52:16;15.30;99.90
25280;DHT22;13225;47.804;12.116;2024-03-17T11:54:46;15.70;99.90
25280;DHT22;13225;47.804;12.116;2024-03-17T11:57:22;15.80;99.90
25280;DHT22;13225;47.804;12.116;2024-03-17T11:59:49;15.90;99.90
25280;DHT22;13225;47.804;12.116;2024-03-17T12:04:40;15.90;99.90
25280;DHT22;13225;47.804;12.116;2024-03-17T12:07:14;16.00;99.90
25280;DHT22;13225;47.804;12.116;2024-03-17T12:09:44;16.30;99.90
25280;DHT22;13225;47.804;12.116;2024-03-17T12:12:35;16.50;99.90
25280;DHT22;13225;47.804;12.116;2024-03-17T12:15:01;16.60;99.90
25280;DHT22;13225;47.804;12.116;2024-03-17T12:17:28;16.60;99.90
25280;DHT22;13225;47.804;12.116;2024-03-17T12:19:55;16.80;99.90
25280;DHT22;13225;47.804;12.116;2024-03-17T12:22:25;16.50;99.90
25280;DHT22;13225;47.804;12.116;2024-03-17T12:24:54;17.10;99.90
25280;DHT22;13225;47.804;12.116;2024-03-17T12:27:23;17.40;99.90
25280;DHT22;13225;47.804;12.116;2024-03-17T12:29:53;17.70;99.90
25280;DHT22;13225;47.804;12.116;2024-03-17T12:32:24;17.80;99.90
25280;DHT22;13225;47.804;12.116;2024-03-17T12:34:51;17.80;99.90
25280;DHT22;13225;47.804;12.116;2024-03-17T12:37:22;17.50;99.90
25280;DHT22;13225;47.804;12.116;2024-03-17T12:39:48;17.60;99.90
25280;DHT22;13225;47.804;12.116;2024-03-17T12:42:23;17.40;99.90
25280;DHT22;13225;47.804;12.116;2024-03-17T12:45:01;17.30;99.90
25280;DHT22;13225;47.804;12.116;2024-03-17T12:47:30;17.10;99.90
25280;DHT22;13225;47.804;12.116;2024-03-17T12:50:00;16.90;99.90
25280;DHT22;13225;47.804;12.116;2024-03-17T12:52:27;16.90;99.90
25280;DHT22;13225;47.804;12.116;2024-03-17T12:57:49;17.40;99.90
25280;DHT22;13225;47.804;12.116;2024-03-17T13:00:34;17.30;99.90
25280;DHT22;13225;47.804;12.116;2024-03-17T13:03:04;17.00;99.90
25280;DHT22;13225;47.804;12.116;2024-03-17T13:05:34;17.10;99.90
25280;DHT22;13225;47.804;12.116;2024-03-17T13:08:00;17.50;99.90
25280;DHT22;13225;47.804;12.116;2024-03-17T13:10:27;17.00;99.90
25280;DHT22;13225;47.804;12.116;2024-03-17T13:13:07;16.60;99.90
25280;DHT22;13225;47.804;12.116;2024-03-17T13:15:33;15.90;99.90
25280;DHT22;13225;47.804;12.116;2024-03-17T13:18:01;15.90;99.90
25280;DHT22;13225;47.804;12.116;2024-03-17T13:20:27;15.90;99.90
25280;DHT22;13225;47.804;12.116;2024-03-17T13:22:53;16.20;99.90
25280;DHT22;13225;47.804;12.116;2024-03-17T13:25:21;16.60;99.90
25280;DHT22;13225;47.804;12.116;2024-03-17T13:27:49;16.50;99.90
25280;DHT22;13225;47.804;12.116;2024-03-17T13:30:16;16.20;99.90
25280;DHT22;13225;47.804;12.116;2024-03-17T13:32:42;16.30;99.90
25280;DHT22;13225;47.804;12.116;2024-03-17T13:35:20;16.00;99.90
25280;DHT22;13225;47.804;12.116;2024-03-17T13:37:48;15.80;99.90
25280;DHT22;13225;47.804;12.116;2024-03-17T13:40:15;16.00;99.90
25280;DHT22;13225;47.804;12.116;2024-03-17T13:42:48;16.20;99.90
25280;DHT22;13225;47.804;12.116;2024-03-17T13:45:14;16.30;99.90
25280;DHT22;13225;47.804;12.116;2024-03-17T13:47:41;16.40;99.90
25280;DHT22;13225;47.804;12.116;2024-03-17T13:50:07;16.50;99.90
25280;DHT22;13225;47.804;12.116;2024-03-17T13:52:44;16.40;99.90
25280;DHT22;13225;47.804;12.116;2024-03-17T13:57:44;16.40;99.90
25280;DHT22;13225;47.804;12.116;2024-03-17T14:00:11;16.10;99.90
25280;DHT22;13225;47.804;12.116;2024-03-17T14:02:44;16.20;99.90
25280;DHT22;13225;47.804;12.116;2024-03-17T14:05:13;16.20;99.90
25280;DHT22;13225;47.804;12.116;2024-03-17T14:07:40;16.20;99.90
25280;DHT22;13225;47.804;12.116;2024-03-17T14:10:06;16.20;99.90
25280;DHT22;13225;47.804;12.116;2024-03-17T14:12:34;16.20;99.90
25280;DHT22;13225;47.804;12.116;2024-03-17T14:14:59;16.10;99.90
25280;DHT22;13225;47.804;12.116;2024-03-17T14:17:25;16.30;99.90
25280;DHT22;13225;47.804;12.116;2024-03-17T14:19:51;16.60;99.90
25280;DHT22;13225;47.804;12.116;2024-03-17T14:22:16;16.40;99.90
25280;DHT22;13225;47.804;12.116;2024-03-17T14:24:42;16.30;99.90
25280;DHT22;13225;47.804;12.116;2024-03-17T14:27:09;16.10;99.90
25280;DHT22;13225;47.804;12.116;2024-03-17T14:29:37;16.30;99.90
25280;DHT22;13225;47.804;12.116;2024-03-17T14:32:03;16.50;99.90
25280;DHT22;13225;47.804;12.116;2024-03-17T14:34:29;16.70;99.90
25280;DHT22;13225;47.804;12.116;2024-03-17T14:37:00;17.00;99.90
25280;DHT22;13225;47.804;12.116;2024-03-17T14:39:26;17.00;99.90
25280;DHT22;13225;47.804;12.116;2024-03-17T14:41:54;16.90;99.90
25280;DHT22;13225;47.804;12.116;2024-03-17T14:44:20;16.90;99.90
25280;DHT22;13225;47.804;12.116;2024-03-17T14:46:45;16.70;99.90
25280;DHT22;13225;47.804;12.116;2024-03-17T14:49:11;16.50;99.90
25280;DHT22;13225;47.804;12.116;2024-03-17T14:51:36;16.00;99.90
25280;DHT22;13225;47.804;12.116;2024-03-17T14:54:02;15.70;99.90
25280;DHT22;13225;47.804;12.116;2024-03-17T14:56:29;15.40;99.90
25280;DHT22;13225;47.804;12.116;2024-03-17T14:58:54;15.60;99.90
25280;DHT22;13225;47.804;12.116;2024-03-17T15:01:20;15.70;99.90
25280;DHT22;13225;47.804;12.116;2024-03-17T15:03:46;15.50;99.90
25280;DHT22;13225;47.804;12.116;2024-03-17T15:06:12;15.70;99.90
25280;DHT22;13225;47.804;12.116;2024-03-17T15:08:40;15.80;99.90
25280;DHT22;13225;47.804;12.116;2024-03-17T15:11:05;15.90;99.90
25280;DHT22;13225;47.804;12.116;2024-03-17T15:13:33;15.80;99.90
25280;DHT22;13225;47.804;12.116;2024-03-17T15:15:59;15.70;99.90
25280;DHT22;13225;47.804;12.116;2024-03-17T15:18:25;15.50;99.90
25280;DHT22;13225;47.804;12.116;2024-03-17T15:20:54;15.60;99.90
25280;DHT22;13225;47.804;12.116;2024-03-17T15:23:22;15.50;99.90
25280;DHT22;13225;47.804;12.116;2024-03-17T15:26:07;15.40;99.90
25280;DHT22;13225;47.804;12.116;2024-03-17T15:28:34;15.30;99.90
25280;DHT22;13225;47.804;12.116;2024-03-17T15:31:05;15.30;99.90
25280;DHT22;13225;47.804;12.116;2024-03-17T15:33:34;15.20;99.90
25280;DHT22;13225;47.804;12.116;2024-03-17T15:36:04;15.20;99.90
25280;DHT22;13225;47.804;12.116;2024-03-17T15:38:35;15.10;99.90
25280;DHT22;13225;47.804;12.116;2024-03-17T15:41:06;14.90;99.90
25280;DHT22;13225;47.804;12.116;2024-03-17T15:43:33;15.00;99.90
25280;DHT22;13225;47.804;12.116;2024-03-17T15:46:02;15.00;99.90
25280;DHT22;13225;47.804;12.116;2024-03-17T15:48:27;14.90;99.90
25280;DHT22;13225;47.804;12.116;2024-03-17T15:50:57;14.80;99.90
25280;DHT22;13225;47.804;12.116;2024-03-17T15:53:23;14.70;99.90
25280;DHT22;13225;47.804;12.116;2024-03-17T15:56:02;14.70;99.90
25280;DHT22;13225;47.804;12.116;2024-03-17T15:58:29;14.70;99.90
25280;DHT22;13225;47.804;12.116;2024-03-17T16:00:55;14.60;99.90
25280;DHT22;13225;47.804;12.116;2024-03-17T16:03:23;14.50;99.90
25280;DHT22;13225;47.804;12.116;2024-03-17T16:05:54;14.50;99.90